createdAt,value
2023-01-07T00:01:39.066Z,-17.77
2023-01-07T00:04:08.875Z,-17.79
2023-01-07T00:06:39.780Z,-17.83
2023-01-07T00:09:11.472Z,-17.79
2023-01-07T00:11:41.307Z,-17.71
2023-01-07T00:14:11.024Z,-17.76
2023-01-07T00:16:41.591Z,-17.75
2023-01-07T00:19:13.702Z,-17.78
2023-01-07T00:21:41.397Z,-17.77
2023-01-07T00:24:10.905Z,-17.77
2023-01-07T00:26:39.197Z,-17.73
2023-01-07T00:29:07.761Z,-17.76
2023-01-07T00:31:38.579Z,-17.81
2023-01-07T00:34:07.312Z,-17.84
2023-01-07T00:36:45.091Z,-17.84
2023-01-07T00:39:19.673Z,-17.86
2023-01-07T00:42:07.222Z,-17.85
2023-01-07T00:44:35.067Z,-17.81
2023-01-07T00:47:02.695Z,-17.86
2023-01-07T00:49:30.275Z,-17.80
2023-01-07T00:51:57.745Z,-17.78
2023-01-07T00:54:26.020Z,-17.82
2023-01-07T00:56:53.548Z,-17.84
2023-01-07T00:59:21.180Z,-17.77
2023-01-07T01:01:48.875Z,-17.82
2023-01-07T01:04:17.152Z,-17.85
2023-01-07T01:06:44.634Z,-17.83
2023-01-07T01:09:12.389Z,-17.73
2023-01-07T01:11:42.021Z,-17.74
2023-01-07T01:14:11.577Z,-17.76
2023-01-07T01:16:39.200Z,-17.72
2023-01-07T01:19:07.236Z,-17.77
2023-01-07T01:21:37.323Z,-17.74
2023-01-07T01:24:04.849Z,-17.71
2023-01-07T01:26:32.353Z,-17.76
2023-01-07T01:28:59.831Z,-17.75
2023-01-07T01:31:27.375Z,-17.78
2023-01-07T01:33:56.196Z,-17.84
2023-01-07T01:36:24.695Z,-17.85
2023-01-07T01:38:54.683Z,-17.77
2023-01-07T01:41:22.358Z,-17.77
2023-01-07T01:43:52.284Z,-17.75
2023-01-07T01:46:42.129Z,-17.62
2023-01-07T01:49:22.681Z,-17.65
2023-01-07T01:52:02.328Z,-17.67
2023-01-07T01:54:30.030Z,-17.73
2023-01-07T01:57:02.866Z,-17.72
2023-01-07T01:59:39.488Z,-17.73
2023-01-07T02:02:11.160Z,-17.76
2023-01-07T02:04:39.064Z,-17.76
2023-01-07T02:07:13.970Z,-17.75
2023-01-07T02:09:49.818Z,-17.75
2023-01-07T02:12:55.394Z,-17.75
2023-01-07T02:15:25.830Z,-17.83
2023-01-07T02:18:15.166Z,-17.86
2023-01-07T02:20:52.975Z,-17.88
2023-01-07T02:24:00.706Z,-17.88
2023-01-07T02:26:57.275Z,-17.89
2023-01-07T02:29:54.667Z,-17.99
2023-01-07T02:32:54.620Z,-17.94
2023-01-07T02:36:03.323Z,-17.97
2023-01-07T02:38:34.058Z,-17.85
2023-01-07T02:41:29.131Z,-17.91
2023-01-07T02:44:06.374Z,-17.92
2023-01-07T02:46:38.972Z,-17.92
2023-01-07T02:49:14.260Z,-17.93
2023-01-07T02:51:43.053Z,-17.89
2023-01-07T02:54:15.740Z,-17.89
2023-01-07T02:57:08.933Z,-17.88
2023-01-07T02:59:46.131Z,-17.90
2023-01-07T03:02:38.469Z,-17.89
2023-01-07T03:05:17.895Z,-17.95
2023-01-07T03:08:01.556Z,-17.96
2023-01-07T03:10:45.114Z,-17.78
2023-01-07T03:13:19.740Z,-17.91
2023-01-07T03:15:51.516Z,-17.89
2023-01-07T03:18:27.577Z,-17.87
2023-01-07T03:21:05.439Z,-17.79
2023-01-07T03:23:36.358Z,-17.76
2023-01-07T03:26:06.805Z,-17.75
2023-01-07T03:28:40.734Z,-17.73
2023-01-07T03:31:15.655Z,-17.65
2023-01-07T03:33:56.915Z,-17.66
2023-01-07T03:36:33.139Z,-17.62
2023-01-07T03:39:02.716Z,-17.57
2023-01-07T03:41:50.418Z,-17.50
2023-01-07T03:44:18.593Z,-17.42
2023-01-07T03:46:47.269Z,-17.43
2023-01-07T03:49:15.474Z,-17.43
2023-01-07T03:51:43.021Z,-17.41
2023-01-07T03:54:10.526Z,-17.36
2023-01-07T03:56:38.236Z,-17.42
2023-01-07T03:59:05.763Z,-17.30
2023-01-07T04:01:33.407Z,-17.30
2023-01-07T04:04:19.893Z,-17.30
2023-01-07T04:06:48.275Z,-17.28
2023-01-07T04:09:18.927Z,-17.22
2023-01-07T04:11:46.966Z,-17.22
2023-01-07T04:14:15.225Z,-17.19
2023-01-07T04:16:42.875Z,-17.21
2023-01-07T04:19:10.775Z,-17.22
2023-01-07T04:21:38.364Z,-17.20
2023-01-07T04:24:07.411Z,-17.16
2023-01-07T04:26:35.554Z,-17.16
2023-01-07T04:29:03.849Z,-17.16
2023-01-07T04:31:33.768Z,-17.26
2023-01-07T04:34:01.259Z,-17.21
2023-01-07T04:36:29.384Z,-17.21
2023-01-07T04:38:57.589Z,-17.32
2023-01-07T04:41:25.055Z,-17.38
2023-01-07T04:43:52.628Z,-17.44
2023-01-07T04:46:20.161Z,-17.46
2023-01-07T04:48:48.516Z,-17.43
2023-01-07T04:51:16.617Z,-17.47
2023-01-07T04:53:51.807Z,-17.43
2023-01-07T04:56:19.346Z,-17.43
2023-01-07T04:58:47.908Z,-17.39
2023-01-07T05:01:16.082Z,-17.34
2023-01-07T05:03:43.935Z,-17.33
2023-01-07T05:06:11.834Z,-17.36
2023-01-07T05:08:39.929Z,-17.36
2023-01-07T05:11:07.815Z,-17.34
2023-01-07T05:13:36.628Z,-17.39
2023-01-07T05:16:05.939Z,-17.43
2023-01-07T05:18:33.870Z,-17.45
2023-01-07T05:21:01.364Z,-17.51
2023-01-07T05:23:29.334Z,-17.54
2023-01-07T05:25:58.236Z,-17.58
2023-01-07T05:28:25.739Z,-17.63
2023-01-07T05:30:53.513Z,-17.65
2023-01-07T05:33:25.533Z,-17.70
2023-01-07T05:35:53.983Z,-17.75
2023-01-07T05:38:22.196Z,-17.76
2023-01-07T05:40:50.850Z,-17.72
2023-01-07T05:43:23.873Z,-17.74
2023-01-07T05:45:51.349Z,-17.78
2023-01-07T05:48:18.852Z,-17.73
2023-01-07T05:50:46.322Z,-17.72
2023-01-07T05:53:13.987Z,-17.77
2023-01-07T05:55:41.497Z,-17.73
2023-01-07T05:58:09.419Z,-17.79
2023-01-07T06:00:37.270Z,-17.76
2023-01-07T06:03:05.137Z,-17.77
2023-01-07T06:05:32.924Z,-17.82
2023-01-07T06:08:00.375Z,-17.74
2023-01-07T06:10:27.882Z,-17.76
2023-01-07T06:12:55.327Z,-17.72
2023-01-07T06:15:22.865Z,-17.72
2023-01-07T06:17:50.469Z,-17.62
2023-01-07T06:20:17.956Z,-17.58
2023-01-07T06:22:45.483Z,-17.50
2023-01-07T06:25:14.121Z,-17.51
2023-01-07T06:27:42.151Z,-17.44
2023-01-07T06:30:11.268Z,-17.31
2023-01-07T06:32:40.907Z,-17.27
2023-01-07T06:35:10.539Z,-17.16
2023-01-07T06:37:38.823Z,-17.14
2023-01-07T06:40:07.222Z,-17.11
2023-01-07T06:42:35.188Z,-17.08
2023-01-07T06:45:02.680Z,-17.10
2023-01-07T06:47:31.018Z,-17.07
2023-01-07T06:49:58.465Z,-17.08
2023-01-07T06:52:25.937Z,-16.98
2023-01-07T06:54:53.411Z,-16.95
2023-01-07T06:57:20.906Z,-16.84
2023-01-07T06:59:48.469Z,-16.64
2023-01-07T07:02:21.709Z,-16.29
2023-01-07T07:04:49.407Z,-15.77
2023-01-07T07:07:17.319Z,-15.40
2023-01-07T07:09:44.988Z,-14.95
2023-01-07T07:12:12.775Z,-14.44
2023-01-07T07:14:40.497Z,-14.07
2023-01-07T07:17:08.024Z,-13.95
2023-01-07T07:19:35.575Z,-13.83
2023-01-07T07:22:04.681Z,-13.29
2023-01-07T07:24:32.307Z,-12.76
2023-01-07T07:27:00.313Z,-12.64
2023-01-07T07:29:27.832Z,-12.51
2023-01-07T07:31:55.322Z,-12.23
2023-01-07T07:34:22.861Z,-12.18
2023-01-07T07:36:50.369Z,-12.49
2023-01-07T07:39:17.958Z,-12.61
2023-01-07T07:41:45.403Z,-12.80
2023-01-07T07:44:16.982Z,-12.65
2023-01-07T07:46:44.530Z,-12.64
2023-01-07T07:49:12.596Z,-12.63
2023-01-07T07:51:40.123Z,-12.59
2023-01-07T07:54:07.574Z,-12.63
2023-01-07T07:56:35.173Z,-12.48
2023-01-07T07:59:02.647Z,-12.03
2023-01-07T08:01:30.241Z,-11.43
2023-01-07T08:03:57.797Z,-10.71
2023-01-07T08:06:25.241Z,-10.20
2023-01-07T08:08:52.730Z,-10.00
2023-01-07T08:11:20.305Z,-9.92
2023-01-07T08:13:47.975Z,-9.99
2023-01-07T08:16:15.536Z,-10.04
2023-01-07T08:18:43.333Z,-9.85
2023-01-07T08:21:10.842Z,-9.82
2023-01-07T08:23:38.359Z,-10.13
2023-01-07T08:26:06.058Z,-10.41
2023-01-07T08:28:34.378Z,-10.22
2023-01-07T08:31:03.990Z,-10.49
2023-01-07T08:33:34.267Z,-11.12
2023-01-07T08:36:03.581Z,-11.73
2023-01-07T08:38:37.510Z,-12.30
2023-01-07T08:41:05.080Z,-12.54
2023-01-07T08:43:33.517Z,-12.64
2023-01-07T08:46:01.018Z,-12.88
2023-01-07T08:48:28.687Z,-13.12
2023-01-07T08:50:56.244Z,-13.35
2023-01-07T08:53:23.749Z,-13.61
2023-01-07T08:55:51.221Z,-13.79
2023-01-07T08:58:18.668Z,-13.94
2023-01-07T09:00:46.168Z,-14.15
2023-01-07T09:03:13.689Z,-14.26
2023-01-07T09:05:41.192Z,-14.37
2023-01-07T09:08:08.646Z,-14.48
2023-01-07T09:10:36.095Z,-14.56
2023-01-07T09:13:03.727Z,-14.66
2023-01-07T09:15:31.269Z,-14.69
2023-01-07T09:17:58.731Z,-14.73
2023-01-07T09:20:26.187Z,-14.71
2023-01-07T09:22:53.649Z,-14.79
2023-01-07T09:25:21.115Z,-14.87
2023-01-07T09:27:49.544Z,-14.91
2023-01-07T09:30:17.323Z,-14.97
2023-01-07T09:32:45.452Z,-15.00
2023-01-07T09:35:13.467Z,-15.03
2023-01-07T09:37:41.361Z,-14.99
2023-01-07T09:40:15.598Z,-14.94
2023-01-07T09:42:46.025Z,-14.92
2023-01-07T09:45:25.288Z,-14.86
2023-01-07T09:47:57.088Z,-14.93
2023-01-07T09:50:43.249Z,-14.95
2023-01-07T09:53:16.481Z,-14.96
2023-01-07T09:56:11.372Z,-15.01
2023-01-07T09:58:33.006Z,-14.98
2023-01-07T10:01:07.154Z,-14.97
2023-01-07T10:03:46.761Z,-15.00
2023-01-07T10:06:42.760Z,-14.98
2023-01-07T10:09:22.946Z,-14.99
2023-01-07T10:12:03.620Z,-15.00
2023-01-07T10:14:52.953Z,-14.90
2023-01-07T10:17:43.301Z,-14.90
2023-01-07T10:20:16.126Z,-14.89
2023-01-07T10:22:54.163Z,-14.87
2023-01-07T10:25:28.816Z,-14.90
2023-01-07T10:28:03.131Z,-14.94
2023-01-07T10:30:34.674Z,-14.89
2023-01-07T10:33:19.821Z,-14.73
2023-01-07T10:35:51.651Z,-14.77
2023-01-07T10:38:20.991Z,-14.73
2023-01-07T10:40:58.578Z,-14.68
2023-01-07T10:43:34.741Z,-14.73
2023-01-07T10:46:05.247Z,-14.74
2023-01-07T10:48:44.799Z,-14.69
2023-01-07T10:51:33.685Z,-14.69
2023-01-07T10:54:22.740Z,-14.65
2023-01-07T10:56:58.148Z,-14.73
2023-01-07T10:59:26.051Z,-14.73
2023-01-07T11:01:57.589Z,-14.70
2023-01-07T11:04:26.546Z,-14.70
2023-01-07T11:07:00.334Z,-14.70
2023-01-07T11:09:32.555Z,-14.70
2023-01-07T11:12:05.615Z,-14.64
2023-01-07T11:14:36.221Z,-14.71
2023-01-07T11:17:15.850Z,-14.72
2023-01-07T11:19:46.218Z,-14.71
2023-01-07T11:22:34.620Z,-14.65
2023-01-07T11:25:23.236Z,-14.76
2023-01-07T11:27:50.858Z,-14.75
2023-01-07T11:30:26.737Z,-14.65
2023-01-07T11:33:01.651Z,-14.58
2023-01-07T11:35:29.648Z,-14.58
2023-01-07T11:37:58.818Z,-14.63
2023-01-07T11:40:31.696Z,-14.50
2023-01-07T11:43:19.016Z,-14.48
2023-01-07T11:46:20.201Z,-14.45
2023-01-07T11:48:46.678Z,-14.49
2023-01-07T11:51:14.304Z,-14.43
2023-01-07T11:53:47.624Z,-14.37
2023-01-07T11:56:25.522Z,-14.34
2023-01-07T11:59:15.941Z,-14.21
2023-01-07T12:01:55.103Z,-14.24
2023-01-07T12:04:24.264Z,-14.33
2023-01-07T12:06:55.169Z,-14.39
2023-01-07T12:09:22.658Z,-14.42
2023-01-07T12:11:51.059Z,-14.41
2023-01-07T12:14:31.599Z,-14.47
2023-01-07T12:17:22.246Z,-14.47
2023-01-07T12:20:04.022Z,-14.49
2023-01-07T12:22:37.446Z,-14.60
2023-01-07T12:25:26.687Z,-14.56
2023-01-07T12:28:14.902Z,-14.61
2023-01-07T12:31:05.654Z,-14.63
2023-01-07T12:33:58.761Z,-14.69
2023-01-07T12:36:40.015Z,-14.76
2023-01-07T12:39:20.865Z,-14.78
2023-01-07T12:41:58.194Z,-14.82
2023-01-07T12:44:25.961Z,-14.87
2023-01-07T12:47:30.743Z,-14.77
2023-01-07T12:50:18.243Z,-14.80
2023-01-07T12:52:51.935Z,-14.89
2023-01-07T12:55:24.658Z,-14.93
2023-01-07T12:57:56.975Z,-14.94
2023-01-07T13:00:29.802Z,-14.94
2023-01-07T13:03:06.225Z,-14.96
2023-01-07T13:05:46.693Z,-14.95
2023-01-07T13:08:51.099Z,-14.93
2023-01-07T13:11:41.008Z,-15.03
2023-01-07T13:14:21.279Z,-15.06
2023-01-07T13:16:49.434Z,-15.07
2023-01-07T13:19:17.150Z,-15.12
2023-01-07T13:21:49.127Z,-15.07
2023-01-07T13:24:54.754Z,-15.03
2023-01-07T13:27:36.285Z,-15.06
2023-01-07T13:30:20.890Z,-15.12
2023-01-07T13:33:29.041Z,-15.03
2023-01-07T13:36:01.552Z,-15.09
2023-01-07T13:38:56.509Z,-15.13
2023-01-07T13:41:29.690Z,-15.19
2023-01-07T13:44:15.739Z,-15.17
2023-01-07T13:46:54.600Z,-15.28
2023-01-07T13:49:31.900Z,-15.23
2023-01-07T13:52:20.320Z,-15.26
2023-01-07T13:54:50.648Z,-15.31
2023-01-07T13:57:23.828Z,-15.30
2023-01-07T13:59:56.019Z,-15.29
2023-01-07T14:02:28.954Z,-15.30
2023-01-07T14:05:05.539Z,-15.25
2023-01-07T14:07:51.440Z,-15.23
2023-01-07T14:10:34.033Z,-15.18
2023-01-07T14:13:23.214Z,-15.19
2023-01-07T14:16:01.193Z,-15.20
2023-01-07T14:18:28.607Z,-15.16
2023-01-07T14:21:18.478Z,-15.21
2023-01-07T14:24:04.917Z,-15.16
2023-01-07T14:26:43.739Z,-15.16
2023-01-07T14:29:29.577Z,-15.16
2023-01-07T14:32:39.284Z,-15.12
2023-01-07T14:35:13.061Z,-15.21
2023-01-07T14:37:47.122Z,-15.23
2023-01-07T14:40:26.799Z,-15.23
2023-01-07T14:42:55.534Z,-15.29
2023-01-07T14:45:41.455Z,-15.31
2023-01-07T14:48:08.908Z,-15.49
2023-01-07T14:50:59.388Z,-15.46
2023-01-07T14:53:36.076Z,-15.39
2023-01-07T14:56:09.464Z,-15.32
2023-01-07T14:58:44.322Z,-15.33
2023-01-07T15:01:18.166Z,-15.29
2023-01-07T15:04:13.275Z,-15.25
2023-01-07T15:06:42.005Z,-15.22
2023-01-07T15:09:36.237Z,-15.27
2023-01-07T15:12:30.546Z,-15.21
2023-01-07T15:15:32.094Z,-15.05
2023-01-07T15:17:59.818Z,-15.06
2023-01-07T15:20:39.483Z,-15.01
2023-01-07T15:23:15.784Z,-14.91
2023-01-07T15:26:02.037Z,-14.84
2023-01-07T15:28:52.290Z,-14.77
2023-01-07T15:31:36.878Z,-14.82
2023-01-07T15:34:16.061Z,-14.92
2023-01-07T15:36:47.029Z,-14.91
2023-01-07T15:39:22.492Z,-14.86
2023-01-07T15:41:54.954Z,-14.81
2023-01-07T15:44:26.127Z,-14.89
2023-01-07T15:46:54.292Z,-15.01
2023-01-07T15:49:29.545Z,-14.98
2023-01-07T15:51:59.830Z,-15.02
2023-01-07T15:54:36.994Z,-14.94
2023-01-07T15:57:11.545Z,-14.91
2023-01-07T15:59:51.032Z,-14.88
2023-01-07T16:02:43.637Z,-14.83
2023-01-07T16:05:11.437Z,-14.95
2023-01-07T16:08:01.517Z,-14.92
2023-01-07T16:10:34.547Z,-14.93
2023-01-07T16:13:15.529Z,-14.94
2023-01-07T16:15:43.042Z,-14.95
2023-01-07T16:18:10.410Z,-14.93
2023-01-07T16:20:49.103Z,-14.87
2023-01-07T16:23:26.027Z,-14.77
2023-01-07T16:25:58.625Z,-14.75
2023-01-07T16:28:33.153Z,-14.71
2023-01-07T16:31:03.989Z,-14.62
2023-01-07T16:33:33.586Z,-14.58
2023-01-07T16:36:05.195Z,-14.59
2023-01-07T16:38:36.578Z,-14.56
2023-01-07T16:41:04.599Z,-14.61
2023-01-07T16:43:41.255Z,-14.52
2023-01-07T16:46:38.489Z,-14.41
2023-01-07T16:49:11.791Z,-14.37
2023-01-07T16:51:44.321Z,-14.38
2023-01-07T16:54:28.748Z,-14.38
2023-01-07T16:56:58.709Z,-14.43
2023-01-07T16:59:35.727Z,-14.38
2023-01-07T17:02:20.036Z,-14.39
2023-01-07T17:04:47.714Z,-14.43
2023-01-07T17:07:23.896Z,-14.44
2023-01-07T17:10:00.409Z,-14.41
2023-01-07T17:12:39.313Z,-14.48
2023-01-07T17:15:45.517Z,-14.41
2023-01-07T17:18:13.115Z,-14.52
2023-01-07T17:20:51.353Z,-14.53
2023-01-07T17:23:27.717Z,-14.50
2023-01-07T17:26:24.015Z,-14.43
2023-01-07T17:28:54.091Z,-14.48
2023-01-07T17:31:23.553Z,-14.46
2023-01-07T17:33:54.621Z,-14.48
2023-01-07T17:36:25.338Z,-14.57
2023-01-07T17:38:53.590Z,-14.57
2023-01-07T17:41:41.201Z,-14.66
2023-01-07T17:44:12.700Z,-14.70
2023-01-07T17:46:41.221Z,-14.78
2023-01-07T17:49:11.215Z,-14.80
2023-01-07T17:51:41.663Z,-14.78
2023-01-07T17:54:23.745Z,-14.76
2023-01-07T17:56:52.587Z,-14.85
2023-01-07T17:59:22.481Z,-14.85
2023-01-07T18:01:55.147Z,-14.93
2023-01-07T18:04:23.198Z,-14.97
2023-01-07T18:06:50.640Z,-15.02
2023-01-07T18:09:18.146Z,-15.06
2023-01-07T18:12:04.806Z,-15.00
2023-01-07T18:14:32.801Z,-15.01
2023-01-07T18:17:00.441Z,-15.02
2023-01-07T18:19:27.924Z,-15.12
2023-01-07T18:21:55.365Z,-15.04
2023-01-07T18:24:22.933Z,-15.06
2023-01-07T18:26:50.547Z,-15.08
2023-01-07T18:29:18.041Z,-15.06
2023-01-07T18:31:45.677Z,-15.05
2023-01-07T18:34:15.317Z,-15.09
2023-01-07T18:36:42.895Z,-15.09
2023-01-07T18:39:18.199Z,-15.08
2023-01-07T18:41:48.862Z,-15.00
2023-01-07T18:44:21.050Z,-14.94
2023-01-07T18:46:48.496Z,-14.90
2023-01-07T18:49:18.880Z,-14.86
2023-01-07T18:51:47.967Z,-14.90
2023-01-07T18:54:15.841Z,-14.90
2023-01-07T18:56:45.957Z,-14.95
2023-01-07T18:59:13.825Z,-14.93
2023-01-07T19:01:41.661Z,-14.91
2023-01-07T19:04:09.424Z,-14.93
2023-01-07T19:06:37.024Z,-14.98
2023-01-07T19:09:04.569Z,-14.94
2023-01-07T19:11:32.034Z,-14.91
2023-01-07T19:14:02.106Z,-14.88
2023-01-07T19:16:29.606Z,-14.83
2023-01-07T19:18:57.243Z,-14.91
2023-01-07T19:21:26.712Z,-14.99
2023-01-07T19:23:54.623Z,-15.04
2023-01-07T19:26:22.314Z,-15.09
2023-01-07T19:28:49.791Z,-15.11
2023-01-07T19:31:17.283Z,-15.17
2023-01-07T19:33:44.746Z,-15.20
2023-01-07T19:36:13.583Z,-15.21
2023-01-07T19:38:44.030Z,-15.23
2023-01-07T19:41:15.015Z,-15.22
2023-01-07T19:43:43.482Z,-15.19
2023-01-07T19:46:12.205Z,-15.10
2023-01-07T19:48:39.755Z,-15.10
2023-01-07T19:51:07.893Z,-15.02
2023-01-07T19:53:35.901Z,-15.01
2023-01-07T19:56:06.622Z,-14.84
2023-01-07T19:58:34.875Z,-14.73
2023-01-07T20:01:10.825Z,-14.61
2023-01-07T20:03:39.197Z,-14.53
2023-01-07T20:06:10.147Z,-14.55
2023-01-07T20:08:38.440Z,-14.58
2023-01-07T20:11:06.559Z,-14.61
2023-01-07T20:13:36.016Z,-14.68
2023-01-07T20:16:13.130Z,-14.73
2023-01-07T20:18:43.091Z,-14.74
2023-01-07T20:21:12.470Z,-14.74
2023-01-07T20:23:41.496Z,-14.66
2023-01-07T20:26:14.675Z,-14.66
2023-01-07T20:28:42.303Z,-14.67
2023-01-07T20:31:13.167Z,-14.72
2023-01-07T20:33:42.061Z,-14.76
2023-01-07T20:36:12.787Z,-14.83
2023-01-07T20:38:40.628Z,-14.82
2023-01-07T20:41:13.122Z,-14.89
2023-01-07T20:43:40.679Z,-14.92
2023-01-07T20:46:09.150Z,-15.02
2023-01-07T20:48:37.634Z,-15.02
2023-01-07T20:51:07.681Z,-15.03
2023-01-07T20:53:37.033Z,-15.06
2023-01-07T20:56:05.567Z,-15.08
2023-01-07T20:58:34.647Z,-15.06
2023-01-07T21:01:04.439Z,-15.07
2023-01-07T21:03:32.089Z,-15.09
2023-01-07T21:05:59.683Z,-15.13
2023-01-07T21:08:27.711Z,-15.21
2023-01-07T21:10:55.428Z,-15.21
2023-01-07T21:13:23.450Z,-15.22
2023-01-07T21:15:51.888Z,-15.17
2023-01-07T21:18:19.786Z,-15.18
2023-01-07T21:20:48.110Z,-15.19
2023-01-07T21:23:15.582Z,-15.19
2023-01-07T21:25:48.116Z,-15.16
2023-01-07T21:28:15.844Z,-15.19
2023-01-07T21:30:43.699Z,-15.19
2023-01-07T21:33:11.222Z,-15.14
2023-01-07T21:35:42.074Z,-15.16
2023-01-07T21:38:09.653Z,-15.10
2023-01-07T21:40:38.741Z,-15.08
2023-01-07T21:43:06.410Z,-15.04
2023-01-07T21:45:33.975Z,-14.91
2023-01-07T21:48:01.471Z,-14.86
2023-01-07T21:50:28.958Z,-14.89
2023-01-07T21:52:56.492Z,-14.86
2023-01-07T21:55:23.997Z,-14.86
2023-01-07T21:57:51.466Z,-14.83
2023-01-07T22:00:19.025Z,-14.80
2023-01-07T22:02:46.517Z,-14.74
2023-01-07T22:05:14.085Z,-14.68
2023-01-07T22:07:41.513Z,-14.69
2023-01-07T22:10:09.983Z,-14.67
2023-01-07T22:12:37.436Z,-14.61
2023-01-07T22:15:05.393Z,-14.51
2023-01-07T22:17:32.882Z,-14.46
2023-01-07T22:20:00.326Z,-14.42
2023-01-07T22:22:27.815Z,-14.40
2023-01-07T22:24:57.810Z,-14.43
2023-01-07T22:27:25.285Z,-14.50
2023-01-07T22:29:52.853Z,-14.54
2023-01-07T22:32:20.324Z,-14.54
2023-01-07T22:34:47.893Z,-14.60
2023-01-07T22:37:18.158Z,-14.65
2023-01-07T22:39:54.250Z,-14.64
2023-01-07T22:42:44.928Z,-14.68
2023-01-07T22:45:21.341Z,-14.69
2023-01-07T22:47:51.097Z,-14.63
2023-01-07T22:50:19.056Z,-14.61
2023-01-07T22:52:47.089Z,-14.50
2023-01-07T22:55:14.639Z,-14.42
2023-01-07T22:57:42.225Z,-14.39
2023-01-07T23:00:37.937Z,-14.27
2023-01-07T23:03:05.492Z,-14.18
2023-01-07T23:05:34.983Z,-14.16
2023-01-07T23:08:02.622Z,-14.13
2023-01-07T23:10:30.084Z,-14.06
2023-01-07T23:12:57.591Z,-14.05
2023-01-07T23:15:25.092Z,-14.02
2023-01-07T23:17:52.583Z,-13.85
2023-01-07T23:20:20.030Z,-13.83
2023-01-07T23:22:50.135Z,-13.83
2023-01-07T23:25:17.720Z,-13.91
2023-01-07T23:27:47.551Z,-13.91
2023-01-07T23:30:15.100Z,-13.96
2023-01-07T23:32:42.663Z,-13.96
2023-01-07T23:35:10.134Z,-13.92
2023-01-07T23:37:37.607Z,-13.88
2023-01-07T23:40:06.450Z,-13.86
2023-01-07T23:42:34.322Z,-13.86
2023-01-07T23:45:02.316Z,-13.91
2023-01-07T23:47:31.012Z,-13.98
2023-01-07T23:50:01.312Z,-13.99
2023-01-07T23:52:29.700Z,-13.93
2023-01-07T23:54:57.218Z,-13.88
2023-01-07T23:57:25.108Z,-13.76
2023-01-07T23:59:52.574Z,-13.70
